createdAt,value
2022-10-09T00:01:33.511Z,82.90
2022-10-09T00:04:01.517Z,82.70
2022-10-09T00:06:32.031Z,82.80
2022-10-09T00:09:02.173Z,82.90
2022-10-09T00:11:31.055Z,83.00
2022-10-09T00:13:59.040Z,83.00
2022-10-09T00:16:27.479Z,82.90
2022-10-09T00:18:54.851Z,82.90
2022-10-09T00:21:21.970Z,82.90
2022-10-09T00:23:50.023Z,82.90
2022-10-09T00:26:18.037Z,82.90
2022-10-09T00:28:46.596Z,83.10
2022-10-09T00:31:14.220Z,83.50
2022-10-09T00:33:41.547Z,83.60
2022-10-09T00:36:13.016Z,83.80
2022-10-09T00:38:40.643Z,83.70
2022-10-09T00:41:07.980Z,83.80
2022-10-09T00:44:07.099Z,83.50
2022-10-09T00:46:48.346Z,82.90
2022-10-09T00:49:25.826Z,82.30
2022-10-09T00:51:55.423Z,81.50
2022-10-09T00:54:27.745Z,81.30
2022-10-09T00:56:55.512Z,81.20
2022-10-09T00:59:23.558Z,81.30
2022-10-09T01:01:50.860Z,81.30
2022-10-09T01:04:18.323Z,81.40
2022-10-09T01:07:03.525Z,81.30
2022-10-09T01:09:52.229Z,81.30
2022-10-09T01:12:42.654Z,81.30
2022-10-09T01:15:17.892Z,81.10
2022-10-09T01:17:59.868Z,81.10
2022-10-09T01:20:33.152Z,81.00
2022-10-09T01:23:12.547Z,81.10
2022-10-09T01:25:59.727Z,80.80
2022-10-09T01:28:29.280Z,81.10
2022-10-09T01:31:04.357Z,80.90
2022-10-09T01:33:33.655Z,80.80
2022-10-09T01:36:02.513Z,80.50
2022-10-09T01:38:30.617Z,80.20
2022-10-09T01:40:58.840Z,79.90
2022-10-09T01:43:25.997Z,79.60
2022-10-09T01:45:53.415Z,79.60
2022-10-09T01:48:25.405Z,79.50
2022-10-09T01:50:55.042Z,79.30
2022-10-09T01:53:24.410Z,79.30
2022-10-09T01:56:00.073Z,79.50
2022-10-09T01:58:56.033Z,79.70
2022-10-09T02:01:33.552Z,79.30
2022-10-09T02:04:04.318Z,79.40
2022-10-09T02:06:33.656Z,79.30
2022-10-09T02:09:03.349Z,79.60
2022-10-09T02:11:33.584Z,79.90
2022-10-09T02:14:02.902Z,80.20
2022-10-09T02:16:37.400Z,80.10
2022-10-09T02:19:20.112Z,79.80
2022-10-09T02:22:15.380Z,79.80
2022-10-09T02:24:43.073Z,80.10
2022-10-09T02:27:12.598Z,80.20
2022-10-09T02:29:44.069Z,80.20
2022-10-09T02:32:12.132Z,80.20
2022-10-09T02:34:39.497Z,79.70
2022-10-09T02:37:07.343Z,79.50
2022-10-09T02:39:34.969Z,79.40
2022-10-09T02:42:02.643Z,79.60
2022-10-09T02:44:30.097Z,79.70
2022-10-09T02:46:57.230Z,79.50
2022-10-09T02:49:25.358Z,79.50
2022-10-09T02:51:52.637Z,79.60
2022-10-09T02:54:19.890Z,79.80
2022-10-09T02:56:47.114Z,79.70
2022-10-09T02:59:14.446Z,79.70
2022-10-09T03:01:41.791Z,79.70
2022-10-09T03:04:10.378Z,79.90
2022-10-09T03:06:37.503Z,79.90
2022-10-09T03:09:04.913Z,80.20
2022-10-09T03:11:32.145Z,80.10
2022-10-09T03:13:59.461Z,79.60
2022-10-09T03:16:27.561Z,79.50
2022-10-09T03:18:56.326Z,79.30
2022-10-09T03:21:25.799Z,79.30
2022-10-09T03:23:53.919Z,79.10
2022-10-09T03:26:24.392Z,79.00
2022-10-09T03:28:53.024Z,79.00
2022-10-09T03:31:50.044Z,79.10
2022-10-09T03:34:11.535Z,79.20
2022-10-09T03:36:38.729Z,79.30
2022-10-09T03:39:06.003Z,79.30
2022-10-09T03:41:33.246Z,79.40
2022-10-09T03:44:00.474Z,79.30
2022-10-09T03:46:27.642Z,79.40
2022-10-09T03:48:55.033Z,79.30
2022-10-09T03:51:22.172Z,79.30
2022-10-09T03:53:49.398Z,79.40
2022-10-09T03:56:16.542Z,79.30
2022-10-09T03:58:43.973Z,79.10
2022-10-09T04:01:11.205Z,78.40
2022-10-09T04:03:38.473Z,78.20
2022-10-09T04:06:06.016Z,78.30
2022-10-09T04:08:33.172Z,77.80
2022-10-09T04:11:01.068Z,77.70
2022-10-09T04:13:28.510Z,77.40
2022-10-09T04:15:56.681Z,77.30
2022-10-09T04:18:25.328Z,77.10
2022-10-09T04:20:54.503Z,77.20
2022-10-09T04:23:25.153Z,77.30
2022-10-09T04:25:56.977Z,77.10
2022-10-09T04:28:24.891Z,77.20
2022-10-09T04:30:52.429Z,77.30
2022-10-09T04:33:20.334Z,77.50
2022-10-09T04:35:51.606Z,77.30
2022-10-09T04:38:20.082Z,77.00
2022-10-09T04:41:01.402Z,77.00
2022-10-09T04:43:29.223Z,76.80
2022-10-09T04:45:56.833Z,76.40
2022-10-09T04:48:24.794Z,76.30
2022-10-09T04:50:52.055Z,76.20
2022-10-09T04:53:19.226Z,76.00
2022-10-09T04:55:46.410Z,76.10
2022-10-09T04:58:14.184Z,76.10
2022-10-09T05:00:46.271Z,76.00
2022-10-09T05:03:14.218Z,76.00
2022-10-09T05:05:41.261Z,75.90
2022-10-09T05:08:08.683Z,75.90
2022-10-09T05:10:36.146Z,75.90
2022-10-09T05:13:03.398Z,75.90
2022-10-09T05:15:31.145Z,76.00
2022-10-09T05:17:58.365Z,75.90
2022-10-09T05:20:25.589Z,75.50
2022-10-09T05:22:52.882Z,75.40
2022-10-09T05:25:20.368Z,75.20
2022-10-09T05:27:47.519Z,75.00
2022-10-09T05:30:14.751Z,74.80
2022-10-09T05:32:41.980Z,74.40
2022-10-09T05:35:10.489Z,74.20
2022-10-09T05:37:40.081Z,74.30
2022-10-09T05:40:08.159Z,74.20
2022-10-09T05:42:35.366Z,74.00
2022-10-09T05:45:02.517Z,73.30
2022-10-09T05:47:32.770Z,72.90
2022-10-09T05:50:00.091Z,72.70
2022-10-09T05:52:28.715Z,72.40
2022-10-09T05:54:57.209Z,72.00
2022-10-09T05:57:24.460Z,71.80
2022-10-09T05:59:53.024Z,71.80
2022-10-09T06:02:20.413Z,71.40
2022-10-09T06:04:47.712Z,71.10
2022-10-09T06:07:15.029Z,70.90
2022-10-09T06:09:42.178Z,70.70
2022-10-09T06:12:09.392Z,69.70
2022-10-09T06:14:36.609Z,69.80
2022-10-09T06:17:03.944Z,70.20
2022-10-09T06:19:31.969Z,70.00
2022-10-09T06:21:59.230Z,69.50
2022-10-09T06:24:29.351Z,68.90
2022-10-09T06:26:58.395Z,68.50
2022-10-09T06:29:25.938Z,68.10
2022-10-09T06:31:55.533Z,67.90
2022-10-09T06:34:23.111Z,67.20
2022-10-09T06:36:50.947Z,66.60
2022-10-09T06:39:18.177Z,66.70
2022-10-09T06:41:45.622Z,66.00
2022-10-09T06:44:30.067Z,65.60
2022-10-09T06:46:57.235Z,65.20
2022-10-09T06:49:24.559Z,64.70
2022-10-09T06:51:51.816Z,64.50
2022-10-09T06:54:18.935Z,64.40
2022-10-09T06:56:46.368Z,64.30
2022-10-09T06:59:13.476Z,63.70
2022-10-09T07:01:40.752Z,63.30
2022-10-09T07:04:13.063Z,62.90
2022-10-09T07:10:13.888Z,63.20
2022-10-09T07:13:10.090Z,62.70
2022-10-09T07:15:44.912Z,62.50
2022-10-09T07:18:12.281Z,62.70
2022-10-09T07:20:39.483Z,61.40
2022-10-09T07:23:07.492Z,61.20
2022-10-09T07:25:38.620Z,60.90
2022-10-09T07:28:05.965Z,60.80
2022-10-09T07:30:33.171Z,60.60
2022-10-09T07:33:00.454Z,60.30
2022-10-09T07:35:27.616Z,59.30
2022-10-09T07:38:48.107Z,59.50
2022-10-09T07:41:15.688Z,59.00
2022-10-09T07:43:43.253Z,59.40
2022-10-09T07:46:16.102Z,59.00
2022-10-09T07:48:59.125Z,58.50
2022-10-09T07:51:29.126Z,58.70
2022-10-09T07:53:57.477Z,58.20
2022-10-09T07:56:26.936Z,58.60
2022-10-09T07:58:56.445Z,58.60
2022-10-09T08:01:25.114Z,58.80
2022-10-09T08:03:52.376Z,58.50
2022-10-09T08:06:20.062Z,58.40
2022-10-09T08:08:55.748Z,58.70
2022-10-09T08:11:25.401Z,58.80
2022-10-09T08:13:53.233Z,57.90
2022-10-09T08:16:22.775Z,58.40
2022-10-09T08:18:54.165Z,58.00
2022-10-09T08:21:21.590Z,58.00
2022-10-09T08:23:54.358Z,57.60
2022-10-09T08:26:23.526Z,57.60
2022-10-09T08:28:56.461Z,57.20
2022-10-09T08:31:25.225Z,57.80
2022-10-09T08:33:54.359Z,56.60
2022-10-09T08:36:22.434Z,55.90
2022-10-09T08:38:50.214Z,56.30
2022-10-09T08:41:32.645Z,54.60
2022-10-09T08:44:10.085Z,53.70
2022-10-09T08:46:43.667Z,53.80
2022-10-09T08:49:40.210Z,53.80
2022-10-09T08:52:36.955Z,54.50
2022-10-09T08:55:21.353Z,54.00
2022-10-09T08:57:55.168Z,54.10
2022-10-09T09:00:27.608Z,54.00
2022-10-09T09:03:08.575Z,53.90
2022-10-09T09:05:44.907Z,53.50
2022-10-09T09:08:44.916Z,54.10
2022-10-09T09:11:19.368Z,53.00
2022-10-09T09:14:03.472Z,52.90
2022-10-09T09:16:58.900Z,52.40
2022-10-09T09:19:55.452Z,52.80
2022-10-09T09:22:24.714Z,52.70
2022-10-09T09:24:54.409Z,52.00
2022-10-09T09:27:27.807Z,51.00
2022-10-09T09:30:01.921Z,51.50
2022-10-09T09:32:31.283Z,50.60
2022-10-09T09:35:27.356Z,50.80
2022-10-09T09:37:54.833Z,50.80
2022-10-09T09:40:37.205Z,51.60
2022-10-09T09:43:28.358Z,51.30
2022-10-09T09:45:57.761Z,52.00
2022-10-09T09:48:44.360Z,52.50
2022-10-09T09:51:28.471Z,51.80
2022-10-09T09:54:04.348Z,51.50
2022-10-09T09:57:06.801Z,51.90
2022-10-09T09:59:40.537Z,51.80
2022-10-09T10:02:26.563Z,52.10
2022-10-09T10:05:02.395Z,52.20
2022-10-09T10:07:31.823Z,51.90
2022-10-09T10:10:25.401Z,51.70
2022-10-09T10:12:59.213Z,52.60
2022-10-09T10:15:26.407Z,52.40
2022-10-09T10:18:08.040Z,53.40
2022-10-09T10:20:57.761Z,52.50
2022-10-09T10:23:43.476Z,52.70
2022-10-09T10:26:43.682Z,53.30
2022-10-09T10:29:16.433Z,54.20
2022-10-09T10:31:43.692Z,56.50
2022-10-09T10:34:25.430Z,56.80
2022-10-09T10:37:15.778Z,55.40
2022-10-09T10:40:01.441Z,55.90
2022-10-09T10:42:38.417Z,56.00
2022-10-09T10:45:33.833Z,54.50
2022-10-09T10:48:03.674Z,53.60
2022-10-09T10:50:37.437Z,52.70
2022-10-09T10:53:30.045Z,51.70
2022-10-09T10:56:07.466Z,49.20
2022-10-09T10:58:59.778Z,50.00
2022-10-09T11:01:44.947Z,49.00
2022-10-09T11:04:28.830Z,48.20
2022-10-09T11:07:09.216Z,46.10
2022-10-09T11:09:42.273Z,46.50
2022-10-09T11:12:48.118Z,46.20
2022-10-09T11:15:23.988Z,44.20
2022-10-09T11:17:59.392Z,45.80
2022-10-09T11:21:08.503Z,45.20
2022-10-09T11:23:36.062Z,44.80
2022-10-09T11:26:44.323Z,46.30
2022-10-09T11:29:23.557Z,47.50
2022-10-09T11:32:04.550Z,45.60
2022-10-09T11:34:40.389Z,46.00
2022-10-09T11:37:15.128Z,45.30
2022-10-09T11:39:42.973Z,44.10
2022-10-09T11:42:12.286Z,43.50
2022-10-09T11:44:56.439Z,46.80
2022-10-09T11:47:23.768Z,47.20
2022-10-09T11:50:04.150Z,46.70
2022-10-09T11:52:56.407Z,44.30
2022-10-09T11:55:33.272Z,43.70
2022-10-09T11:58:24.375Z,44.60
2022-10-09T12:00:56.796Z,44.20
2022-10-09T12:03:34.060Z,43.90
2022-10-09T12:06:16.864Z,46.30
2022-10-09T12:08:57.467Z,48.00
2022-10-09T12:11:25.569Z,49.70
2022-10-09T12:13:59.277Z,51.80
2022-10-09T12:16:46.998Z,52.10
2022-10-09T12:19:22.866Z,51.10
2022-10-09T12:21:56.253Z,50.70
2022-10-09T12:24:27.818Z,49.20
2022-10-09T12:26:56.584Z,48.90
2022-10-09T12:29:31.954Z,48.80
2022-10-09T12:32:07.023Z,49.00
2022-10-09T12:34:43.588Z,48.20
2022-10-09T12:37:12.988Z,48.90
2022-10-09T12:39:40.396Z,48.10
2022-10-09T12:42:18.404Z,47.30
2022-10-09T12:44:46.910Z,47.80
2022-10-09T12:47:37.785Z,49.30
2022-10-09T12:50:17.065Z,50.20
2022-10-09T12:53:13.817Z,49.80
2022-10-09T12:55:52.758Z,50.60
2022-10-09T12:58:36.930Z,51.10
2022-10-09T13:01:09.850Z,51.70
2022-10-09T13:03:40.187Z,52.00
2022-10-09T13:06:23.446Z,51.30
2022-10-09T13:09:00.893Z,52.20
2022-10-09T13:11:43.445Z,51.60
2022-10-09T13:14:35.548Z,50.50
2022-10-09T13:17:03.466Z,51.00
2022-10-09T13:19:33.202Z,52.30
2022-10-09T13:22:08.675Z,54.20
2022-10-09T13:24:36.058Z,56.20
2022-10-09T13:27:05.008Z,57.00
2022-10-09T13:29:32.382Z,57.60
2022-10-09T13:31:59.686Z,59.00
2022-10-09T13:34:29.094Z,61.00
2022-10-09T13:37:00.185Z,60.90
2022-10-09T13:39:27.619Z,60.40
2022-10-09T13:41:57.687Z,61.50
2022-10-09T13:44:25.260Z,61.60
2022-10-09T13:47:01.598Z,62.50
2022-10-09T13:49:28.992Z,63.60
2022-10-09T13:51:57.342Z,63.20
2022-10-09T13:54:25.881Z,63.70
2022-10-09T13:56:54.927Z,64.30
2022-10-09T13:59:24.292Z,64.70
2022-10-09T14:01:52.177Z,65.10
2022-10-09T14:04:19.762Z,65.50
2022-10-09T14:06:47.426Z,66.00
2022-10-09T14:09:15.586Z,67.40
2022-10-09T14:11:44.730Z,67.20
2022-10-09T14:14:13.216Z,67.30
2022-10-09T14:16:40.846Z,67.40
2022-10-09T14:19:07.984Z,68.50
2022-10-09T14:21:35.131Z,68.10
2022-10-09T14:24:03.767Z,68.60
2022-10-09T14:26:31.544Z,69.50
2022-10-09T14:29:01.214Z,70.40
2022-10-09T14:31:29.285Z,71.10
2022-10-09T14:33:59.968Z,70.60
2022-10-09T14:36:29.073Z,71.20
2022-10-09T14:38:59.394Z,72.30
2022-10-09T14:41:28.071Z,72.50
2022-10-09T14:43:57.873Z,72.50
2022-10-09T14:46:26.230Z,72.90
2022-10-09T14:48:56.777Z,72.90
2022-10-09T14:51:36.644Z,72.70
2022-10-09T14:54:12.133Z,72.90
2022-10-09T14:56:43.454Z,73.30
2022-10-09T14:59:11.478Z,73.40
2022-10-09T15:01:41.118Z,74.10
2022-10-09T15:04:25.547Z,74.60
2022-10-09T15:06:58.780Z,75.00
2022-10-09T15:09:30.363Z,75.30
2022-10-09T15:11:57.539Z,75.50
2022-10-09T15:14:24.755Z,75.50
2022-10-09T15:16:55.028Z,75.50
2022-10-09T15:19:22.312Z,75.60
2022-10-09T15:21:49.880Z,75.60
2022-10-09T15:24:18.105Z,75.70
2022-10-09T15:26:45.567Z,75.40
2022-10-09T15:29:12.954Z,75.40
2022-10-09T15:31:41.664Z,75.40
2022-10-09T15:34:15.979Z,75.40
2022-10-09T15:36:44.635Z,75.60
2022-10-09T15:39:15.627Z,75.90
2022-10-09T15:41:43.693Z,75.00
2022-10-09T15:44:19.648Z,75.50
2022-10-09T15:46:48.304Z,75.60
2022-10-09T15:49:15.633Z,75.60
2022-10-09T15:51:43.319Z,76.00
2022-10-09T15:54:12.571Z,76.20
2022-10-09T15:56:41.675Z,76.50
2022-10-09T15:59:17.379Z,76.90
2022-10-09T16:01:46.179Z,76.90
2022-10-09T16:04:14.313Z,77.50
2022-10-09T16:06:41.555Z,77.90
2022-10-09T16:09:10.014Z,78.10
2022-10-09T16:11:37.783Z,78.10
2022-10-09T16:14:05.209Z,78.10
2022-10-09T16:16:33.187Z,77.90
2022-10-09T16:19:03.469Z,77.90
2022-10-09T16:21:34.150Z,77.70
2022-10-09T16:24:04.040Z,78.00
2022-10-09T16:26:31.503Z,78.60
2022-10-09T16:29:00.673Z,78.90
2022-10-09T16:31:35.061Z,78.90
2022-10-09T16:34:06.801Z,79.10
2022-10-09T16:36:34.563Z,79.50
2022-10-09T16:39:01.765Z,79.50
2022-10-09T16:44:12.266Z,79.50
2022-10-09T16:46:39.548Z,79.60
2022-10-09T16:49:08.047Z,80.00
2022-10-09T16:51:36.868Z,80.00
2022-10-09T16:54:05.685Z,80.30
2022-10-09T16:56:51.819Z,80.50
2022-10-09T17:03:04.921Z,80.80
2022-10-09T17:05:32.279Z,80.30
2022-10-09T17:07:59.678Z,80.30
2022-10-09T17:10:34.771Z,80.00
2022-10-09T17:13:02.265Z,80.10
2022-10-09T17:15:29.531Z,80.30
2022-10-09T17:17:58.038Z,80.40
2022-10-09T17:20:25.372Z,80.30
2022-10-09T17:22:52.967Z,79.90
2022-10-09T17:25:20.404Z,79.80
2022-10-09T17:27:47.874Z,79.90
2022-10-09T17:30:15.795Z,79.90
2022-10-09T17:32:43.647Z,79.60
2022-10-09T17:35:11.630Z,79.60
2022-10-09T17:37:39.095Z,79.50
2022-10-09T17:40:06.766Z,79.40
2022-10-09T17:42:45.817Z,79.10
2022-10-09T17:45:13.318Z,79.00
2022-10-09T17:47:43.084Z,79.00
2022-10-09T17:50:10.727Z,78.70
2022-10-09T17:52:38.613Z,78.30
2022-10-09T17:55:06.445Z,78.00
2022-10-09T17:57:33.568Z,77.50
2022-10-09T18:00:00.848Z,77.10
2022-10-09T18:02:28.041Z,77.20
2022-10-09T18:04:57.661Z,77.20
2022-10-09T18:07:25.530Z,77.30
2022-10-09T18:09:53.000Z,77.30
2022-10-09T18:12:20.675Z,77.10
2022-10-09T18:14:48.069Z,76.80
2022-10-09T18:17:15.226Z,76.60
2022-10-09T18:19:42.424Z,76.20
2022-10-09T18:22:11.006Z,75.80
2022-10-09T18:24:38.360Z,75.60
2022-10-09T18:27:05.532Z,74.90
2022-10-09T18:29:32.790Z,74.90
2022-10-09T18:32:00.121Z,74.90
2022-10-09T18:34:27.562Z,74.50
2022-10-09T18:36:54.937Z,74.00
2022-10-09T18:39:23.119Z,73.60
2022-10-09T18:41:50.464Z,73.60
2022-10-09T18:44:19.680Z,72.80
2022-10-09T18:46:55.514Z,72.50
2022-10-09T18:49:31.283Z,72.40
2022-10-09T18:52:02.254Z,72.40
2022-10-09T18:54:31.133Z,72.60
2022-10-09T18:56:58.535Z,72.70
2022-10-09T18:59:25.990Z,72.70
2022-10-09T19:01:53.161Z,72.80
2022-10-09T19:04:20.401Z,73.00
2022-10-09T19:06:48.049Z,73.30
2022-10-09T19:12:00.979Z,73.20
2022-10-09T19:14:28.302Z,73.50
2022-10-09T19:16:55.562Z,73.50
2022-10-09T19:19:22.983Z,73.60
2022-10-09T19:21:50.134Z,73.80
2022-10-09T19:24:17.447Z,74.00
2022-10-09T19:26:45.443Z,74.10
2022-10-09T19:29:12.761Z,74.50
2022-10-09T19:31:39.925Z,74.60
2022-10-09T19:34:07.423Z,74.40
2022-10-09T19:36:37.094Z,74.50
2022-10-09T19:39:08.532Z,74.70
2022-10-09T19:41:36.073Z,75.10
2022-10-09T19:44:03.549Z,75.10
2022-10-09T19:46:30.798Z,75.10
2022-10-09T19:48:58.168Z,75.30
2022-10-09T19:51:27.109Z,75.40
2022-10-09T19:53:55.038Z,75.50
2022-10-09T19:56:26.236Z,75.60
2022-10-09T19:58:55.014Z,75.40
2022-10-09T20:01:25.663Z,75.50
2022-10-09T20:04:21.203Z,75.30
2022-10-09T20:07:01.022Z,75.50
2022-10-09T20:09:28.286Z,75.30
2022-10-09T20:11:55.692Z,75.20
2022-10-09T20:14:23.060Z,75.20
2022-10-09T20:16:50.219Z,75.30
2022-10-09T20:19:17.589Z,75.40
2022-10-09T20:21:44.756Z,75.50
2022-10-09T20:24:12.057Z,75.50
2022-10-09T20:26:42.986Z,75.70
2022-10-09T20:29:10.722Z,75.80
2022-10-09T20:31:38.397Z,76.10
2022-10-09T20:34:05.529Z,76.20
2022-10-09T20:36:35.664Z,76.20
2022-10-09T20:39:08.891Z,75.90
2022-10-09T20:41:36.750Z,75.90
2022-10-09T20:44:04.889Z,75.80
2022-10-09T20:46:34.574Z,75.60
2022-10-09T20:49:07.286Z,75.50
2022-10-09T20:51:39.320Z,75.40
2022-10-09T20:54:09.420Z,75.50
2022-10-09T20:56:37.207Z,75.50
2022-10-09T20:59:04.537Z,76.10
2022-10-09T21:01:31.931Z,76.20
2022-10-09T21:03:59.450Z,76.60
2022-10-09T21:06:27.250Z,76.60
2022-10-09T21:08:54.891Z,76.50
2022-10-09T21:11:22.626Z,76.40
2022-10-09T21:13:50.519Z,76.30
2022-10-09T21:16:23.321Z,76.40
2022-10-09T21:19:04.858Z,76.30
2022-10-09T21:21:50.062Z,76.20
2022-10-09T21:24:18.436Z,76.10
2022-10-09T21:26:47.552Z,76.10
2022-10-09T21:29:15.464Z,76.40
2022-10-09T21:31:42.604Z,76.60
2022-10-09T21:34:09.857Z,76.70
2022-10-09T21:37:08.846Z,76.80
2022-10-09T21:39:34.327Z,77.00
2022-10-09T21:42:01.479Z,77.00
2022-10-09T21:44:28.846Z,77.10
2022-10-09T21:46:56.335Z,77.20
2022-10-09T21:49:26.168Z,77.30
2022-10-09T21:51:54.102Z,77.50
2022-10-09T21:54:21.404Z,77.70
2022-10-09T21:56:48.788Z,77.80
2022-10-09T21:59:16.052Z,77.90
2022-10-09T22:01:43.302Z,78.00
2022-10-09T22:04:10.658Z,78.00
2022-10-09T22:06:37.844Z,78.20
2022-10-09T22:09:05.070Z,78.30
2022-10-09T22:11:32.330Z,78.40
2022-10-09T22:13:59.739Z,78.30
2022-10-09T22:16:26.865Z,78.20
2022-10-09T22:18:54.224Z,78.30
2022-10-09T22:21:23.244Z,78.40
2022-10-09T22:23:50.752Z,78.50
2022-10-09T22:26:20.761Z,78.60
2022-10-09T22:28:49.373Z,78.70
2022-10-09T22:31:22.583Z,78.60
2022-10-09T22:34:01.568Z,78.40
2022-10-09T22:36:31.608Z,78.20
2022-10-09T22:39:01.495Z,78.10
2022-10-09T22:41:30.196Z,77.80
2022-10-09T22:44:12.861Z,77.40
2022-10-09T22:46:42.521Z,77.10
2022-10-09T22:49:12.826Z,76.70
2022-10-09T22:51:40.668Z,76.40
2022-10-09T22:54:08.645Z,76.30
2022-10-09T22:56:41.448Z,76.20
2022-10-09T22:59:10.115Z,76.10
2022-10-09T23:01:44.695Z,76.10
2022-10-09T23:04:13.565Z,76.20
2022-10-09T23:06:41.699Z,76.10
2022-10-09T23:09:12.883Z,76.20
2022-10-09T23:11:40.366Z,76.40
2022-10-09T23:14:08.134Z,76.50
2022-10-09T23:16:35.375Z,76.40
2022-10-09T23:19:06.642Z,76.50
2022-10-09T23:21:34.741Z,76.60
2022-10-09T23:24:03.205Z,76.90
2022-10-09T23:26:32.236Z,77.20
2022-10-09T23:29:05.711Z,77.20
2022-10-09T23:31:34.209Z,77.50
2022-10-09T23:34:02.483Z,77.70
2022-10-09T23:36:30.144Z,78.00
2022-10-09T23:38:58.667Z,78.10
2022-10-09T23:41:27.447Z,78.10
2022-10-09T23:43:55.073Z,78.10
2022-10-09T23:46:25.438Z,78.00
2022-10-09T23:48:54.129Z,78.10
2022-10-09T23:51:23.128Z,78.20
2022-10-09T23:53:50.489Z,78.20
2022-10-09T23:56:20.145Z,78.20
2022-10-09T23:58:47.466Z,78.20
